Hondarribia Gipuzkoa

latitud = 43° 21' 38''N | longitud = 001° 47' 14''W
4 metros sobre el nivel del mar | datos mensuales

Fecha, hora, temperatura, viento dirección y velocidad, humedad y presión.

  • 25-09-2017 00:00:00 | 20.60°C | Oeste |13.00 km/h | 87.00% | 1019.10 hPa
  • 24-09-2017 23:00:00 | 19.80°C | Sudoeste |3.00 km/h | 93.00% | 1017.90 hPa
  • 24-09-2017 22:00:00 | 19.70°C | Calma |0.00 km/h | 90.00% | 1016.90 hPa
  • 24-09-2017 21:00:00 | 20.90°C | Calma |0.00 km/h | 88.00% | 1016.60 hPa
  • 24-09-2017 20:00:00 | 21.50°C | Norte |4.00 km/h | 86.00% | 1016.40 hPa
  • 24-09-2017 19:00:00 | 21.90°C | Norte |5.00 km/h | 85.00% | 1016.50 hPa
  • 24-09-2017 18:00:00 | 22.70°C | Norte |8.00 km/h | 80.00% | 1016.60 hPa
  • 24-09-2017 17:00:00 | 23.20°C | Norte |7.00 km/h | 80.00% | 1016.80 hPa
  • 24-09-2017 16:00:00 | 23.30°C | Norte |11.00 km/h | 78.00% | 1017.00 hPa
  • 24-09-2017 15:00:00 | 23.50°C | Norte |10.00 km/h | 75.00% | 1017.10 hPa
  • 24-09-2017 14:00:00 | 23.00°C | Norte |10.00 km/h | 76.00% | 1017.50 hPa
  • 24-09-2017 13:00:00 | 22.40°C | Norte |8.00 km/h | 77.00% | 1018.00 hPa
  • 24-09-2017 12:00:00 | 21.90°C | Norte |6.00 km/h | 77.00% | 1018.40 hPa
  • 24-09-2017 11:00:00 | 20.00°C | Calma |0.00 km/h | 77.00% | 1018.50 hPa
  • 24-09-2017 10:00:00 | 17.10°C | Sur |3.00 km/h | 87.00% | 1018.50 hPa
  • 24-09-2017 09:00:00 | 15.50°C | Sudeste |8.00 km/h | 93.00% | 1018.50 hPa
  • 24-09-2017 08:00:00 | 15.60°C | Sudeste |4.00 km/h | 93.00% | 1018.50 hPa
  • 24-09-2017 07:00:00 | 15.90°C | Sur |5.00 km/h | 92.00% | 1018.40 hPa
  • 24-09-2017 06:00:00 | 16.60°C | Sur |6.00 km/h | 91.00% | 1018.50 hPa
  • 24-09-2017 05:00:00 | 17.00°C | Sudeste |5.00 km/h | 91.00% | 1018.70 hPa
  • 24-09-2017 04:00:00 | 17.50°C | Sudeste |7.00 km/h | 91.00% | 1019.10 hPa
  • 24-09-2017 03:00:00 | 18.60°C | Oeste |6.00 km/h | 89.00% | 1019.40 hPa
  • 24-09-2017 02:00:00 | 19.70°C | Sur |8.00 km/h | 87.00% | 1019.60 hPa
  • 24-09-2017 01:00:00 | 19.70°C | Sur |5.00 km/h | 87.00% | 1019.40 hPa